createdAt,value
2023-02-27T00:01:29.336Z,100.00
2023-02-27T00:08:12.565Z,100.00
2023-02-27T00:14:55.146Z,100.00
2023-02-27T00:21:37.978Z,100.00
2023-02-27T00:28:20.691Z,100.00
2023-02-27T00:35:06.158Z,100.00
2023-02-27T00:41:48.455Z,100.00
2023-02-27T00:48:30.967Z,100.00
2023-02-27T00:55:13.420Z,100.00
2023-02-27T01:01:56.461Z,100.00
2023-02-27T01:08:38.852Z,100.00
2023-02-27T01:15:21.623Z,100.00
2023-02-27T01:22:04.013Z,100.00
2023-02-27T01:28:46.649Z,100.00
2023-02-27T01:35:28.894Z,100.00
2023-02-27T01:42:27.861Z,100.00
2023-02-27T01:49:33.460Z,100.00
2023-02-27T01:56:25.376Z,100.00
2023-02-27T02:03:35.983Z,100.00
2023-02-27T02:10:19.531Z,100.00
2023-02-27T02:17:48.819Z,100.00
2023-02-27T02:24:55.901Z,100.00
2023-02-27T02:32:25.914Z,100.00
2023-02-27T02:39:22.419Z,100.00
2023-02-27T02:46:33.311Z,100.00
2023-02-27T02:53:48.238Z,100.00
2023-02-27T03:00:42.064Z,100.00
2023-02-27T03:07:38.737Z,100.00
2023-02-27T03:14:50.075Z,100.00
2023-02-27T03:21:56.801Z,100.00
2023-02-27T03:28:51.375Z,100.00
2023-02-27T03:36:19.658Z,100.00
2023-02-27T03:43:40.990Z,100.00
2023-02-27T03:50:24.761Z,100.00
2023-02-27T03:57:09.006Z,100.00
2023-02-27T04:04:03.144Z,100.00
2023-02-27T04:11:30.321Z,100.00
2023-02-27T04:18:34.526Z,100.00
2023-02-27T04:25:33.494Z,100.00
2023-02-27T04:32:38.503Z,100.00
2023-02-27T04:39:34.460Z,100.00
2023-02-27T04:46:21.104Z,100.00
2023-02-27T04:53:18.092Z,100.00
2023-02-27T05:00:06.275Z,100.00
2023-02-27T05:06:51.713Z,100.00
2023-02-27T05:13:43.758Z,100.00
2023-02-27T05:20:35.411Z,100.00
2023-02-27T05:27:29.535Z,100.00
2023-02-27T05:34:23.183Z,100.00
2023-02-27T05:41:22.551Z,100.00
2023-02-27T05:48:18.480Z,100.00
2023-02-27T05:55:11.986Z,100.00
2023-02-27T06:01:56.223Z,100.00
2023-02-27T06:08:38.966Z,100.00
2023-02-27T06:15:21.363Z,100.00
2023-02-27T06:22:03.723Z,100.00
2023-02-27T06:28:46.099Z,100.00
2023-02-27T06:35:29.907Z,100.00
2023-02-27T06:42:12.530Z,100.00
2023-02-27T06:48:54.986Z,100.00
2023-02-27T06:55:39.678Z,100.00
2023-02-27T07:02:24.033Z,100.00
2023-02-27T07:09:07.114Z,100.00
2023-02-27T07:15:52.355Z,100.00
2023-02-27T07:22:35.126Z,100.00
2023-02-27T07:29:17.971Z,100.00
2023-02-27T07:36:00.446Z,100.00
2023-02-27T07:42:47.524Z,100.00
2023-02-27T07:49:29.942Z,99.09
2023-02-27T07:56:12.283Z,98.64
2023-02-27T08:02:54.606Z,96.81
2023-02-27T08:09:39.923Z,89.24
2023-02-27T08:16:22.347Z,85.45
2023-02-27T08:23:04.891Z,84.79
2023-02-27T08:29:47.404Z,81.66
2023-02-27T08:36:30.083Z,78.30
2023-02-27T08:43:13.129Z,77.17
2023-02-27T08:49:56.949Z,75.08
2023-02-27T08:56:39.768Z,73.19
2023-02-27T09:03:22.514Z,71.38
2023-02-27T09:10:07.343Z,71.07
2023-02-27T09:16:49.999Z,70.89
2023-02-27T09:23:32.491Z,70.10
2023-02-27T09:30:15.326Z,67.95
2023-02-27T09:37:01.800Z,68.77
2023-02-27T09:43:49.548Z,67.46
2023-02-27T09:50:45.091Z,65.31
2023-02-27T09:57:27.491Z,62.89
2023-02-27T10:04:31.989Z,64.46
2023-02-27T10:11:24.498Z,62.13
2023-02-27T10:18:28.264Z,63.67
2023-02-27T10:25:30.429Z,63.77
2023-02-27T10:32:35.917Z,61.27
2023-02-27T10:39:20.992Z,60.90
2023-02-27T10:46:12.383Z,61.94
2023-02-27T10:53:02.504Z,62.16
2023-02-27T11:00:23.900Z,61.80
2023-02-27T11:07:12.162Z,62.61
2023-02-27T11:13:56.131Z,63.67
2023-02-27T11:20:43.521Z,62.99
2023-02-27T11:27:30.821Z,60.56
2023-02-27T11:34:32.287Z,60.16
2023-02-27T11:41:15.037Z,59.54
2023-02-27T11:48:25.442Z,57.60
2023-02-27T11:55:18.228Z,57.45
2023-02-27T12:02:23.028Z,58.16
2023-02-27T12:09:38.701Z,57.67
2023-02-27T12:17:02.686Z,58.50
2023-02-27T12:24:11.004Z,59.27
2023-02-27T12:31:35.322Z,56.87
2023-02-27T12:38:20.117Z,55.94
2023-02-27T12:45:21.209Z,55.00
2023-02-27T12:52:24.671Z,57.40
2023-02-27T12:59:37.263Z,57.49
2023-02-27T13:06:48.068Z,57.75
2023-02-27T13:13:49.322Z,58.37
2023-02-27T13:20:50.161Z,56.37
2023-02-27T13:27:43.594Z,55.51
2023-02-27T13:34:39.629Z,55.52
2023-02-27T13:41:24.732Z,54.15
2023-02-27T13:48:41.850Z,54.53
2023-02-27T13:55:31.340Z,52.99
2023-02-27T14:02:13.655Z,53.05
2023-02-27T14:09:08.892Z,52.12
2023-02-27T14:16:00.465Z,52.67
2023-02-27T14:23:17.230Z,52.84
2023-02-27T14:30:08.035Z,53.25
2023-02-27T14:37:05.738Z,53.52
2023-02-27T14:43:56.018Z,54.60
2023-02-27T14:50:41.578Z,54.94
2023-02-27T14:57:28.947Z,53.96
2023-02-27T15:04:20.462Z,54.50
2023-02-27T15:11:03.245Z,55.03
2023-02-27T15:17:47.064Z,55.37
2023-02-27T15:24:48.801Z,55.67
2023-02-27T15:31:32.560Z,56.12
2023-02-27T15:38:31.552Z,56.70
2023-02-27T15:45:25.870Z,56.64
2023-02-27T15:52:23.606Z,57.03
2023-02-27T15:59:06.839Z,57.83
2023-02-27T16:05:53.236Z,58.39
2023-02-27T16:12:38.221Z,59.03
2023-02-27T16:19:30.164Z,59.80
2023-02-27T16:26:32.209Z,60.58
2023-02-27T16:33:23.483Z,61.03
2023-02-27T16:40:27.304Z,61.52
2023-02-27T16:47:10.099Z,62.15
2023-02-27T16:53:54.612Z,62.29
2023-02-27T17:00:36.943Z,62.30
2023-02-27T17:07:19.890Z,62.58
2023-02-27T17:14:02.362Z,63.68
2023-02-27T17:20:45.079Z,64.36
2023-02-27T17:27:27.640Z,64.80
2023-02-27T17:34:10.505Z,65.23
2023-02-27T17:40:52.751Z,65.96
2023-02-27T17:47:35.753Z,66.89
2023-02-27T17:54:18.169Z,67.52
2023-02-27T18:01:08.723Z,68.55
2023-02-27T18:07:51.368Z,69.24
2023-02-27T18:14:34.814Z,70.10
2023-02-27T18:21:21.521Z,70.95
2023-02-27T18:28:06.381Z,71.52
2023-02-27T18:34:49.053Z,71.92
2023-02-27T18:41:31.884Z,72.90
2023-02-27T18:48:16.025Z,73.02
2023-02-27T18:55:01.121Z,73.62
2023-02-27T19:01:46.236Z,74.06
2023-02-27T19:08:29.734Z,73.96
2023-02-27T19:15:12.254Z,74.68
2023-02-27T19:21:57.350Z,75.29
2023-02-27T19:28:42.789Z,75.99
2023-02-27T19:35:28.481Z,75.93
2023-02-27T19:42:11.646Z,76.41
2023-02-27T19:48:58.001Z,77.53
2023-02-27T19:55:40.533Z,77.87
2023-02-27T20:02:23.455Z,77.28
2023-02-27T20:09:05.913Z,77.80
2023-02-27T20:15:59.953Z,78.08
2023-02-27T20:22:44.347Z,78.19
2023-02-27T20:29:28.365Z,78.54
2023-02-27T20:36:11.907Z,78.43
2023-02-27T20:42:54.551Z,78.92
2023-02-27T20:49:38.107Z,79.32
2023-02-27T20:56:25.128Z,79.71
2023-02-27T21:03:10.269Z,80.78
2023-02-27T21:09:52.640Z,80.60
2023-02-27T21:16:38.293Z,80.90
2023-02-27T21:23:20.732Z,80.62
2023-02-27T21:30:06.092Z,80.42
2023-02-27T21:36:49.482Z,80.61
2023-02-27T21:43:31.945Z,80.08
2023-02-27T21:50:14.338Z,80.52
2023-02-27T21:56:59.120Z,81.14
2023-02-27T22:03:47.391Z,81.16
2023-02-27T22:10:29.730Z,81.24
2023-02-27T22:17:12.089Z,81.38
2023-02-27T22:23:58.000Z,82.19
2023-02-27T22:30:40.358Z,82.58
2023-02-27T22:37:23.577Z,82.82
2023-02-27T22:44:07.658Z,82.58
2023-02-27T22:51:07.708Z,82.39
2023-02-27T22:57:51.870Z,83.25
2023-02-27T23:04:34.175Z,83.55
2023-02-27T23:11:19.135Z,83.96
2023-02-27T23:18:01.382Z,84.78
2023-02-27T23:24:43.682Z,84.75
2023-02-27T23:31:26.110Z,84.59
2023-02-27T23:38:08.753Z,85.55
2023-02-27T23:45:06.236Z,85.63
2023-02-27T23:51:48.578Z,85.92
2023-02-27T23:58:30.976Z,86.54
